Time;durP1;ratioP1;P1;durP2;ratioP2;P2;SDS_P1;SDS_P2;PMS_P1;PMS_P2;Temp;Humidity;BMP_temperature;BMP_pressure;BME280_temperature;BME280_humidity;BME280_pressure;Samples;Min_cycle;Max_cycle;Signal;HPM_P1;HPM_P2
2022/10/04 00:00:22;;;;;;;10.68;8.27;;;;;;;10.39;100.00;102301.56;5089725;28;20445;-63
2022/10/04 00:02:48;;;;;;;13.00;8.75;;;;;;;10.37;100.00;102295.38;5089398;28;20024;-63
2022/10/04 00:05:17;;;;;;;13.98;8.73;;;;;;;10.35;100.00;102289.22;5089736;28;20266;-63
2022/10/04 00:07:51;;;;;;;12.98;9.00;;;;;;;10.33;100.00;102296.00;5088619;28;20097;-63
2022/10/04 00:10:22;;;;;;;10.75;8.45;;;;;;;10.33;100.00;102296.00;5088070;28;20028;-62
2022/10/04 00:12:59;;;;;;;11.57;9.68;;;;;;;10.31;100.00;102292.44;5088832;28;20024;-62
2022/10/04 00:15:28;;;;;;;11.77;8.77;;;;;;;10.29;100.00;102294.94;5088900;28;20051;-63
2022/10/04 00:18:15;;;;;;;12.07;8.57;;;;;;;10.27;100.00;102293.97;5088821;28;20285;-63
2022/10/04 00:20:49;;;;;;;9.57;7.82;;;;;;;10.29;100.00;102294.94;5089277;28;20031;-62
2022/10/04 00:23:23;;;;;;;15.57;8.52;;;;;;;10.26;100.00;102287.00;5088917;28;20525;-62
2022/10/04 00:25:54;;;;;;;13.70;8.60;;;;;;;10.23;100.00;102273.88;5088507;28;20462;-62
2022/10/04 00:28:19;;;;;;;13.90;8.32;;;;;;;10.21;100.00;102275.50;5088246;28;20024;-63
2022/10/04 00:31:07;;;;;;;11.98;8.02;;;;;;;10.19;100.00;102271.91;5088617;28;20032;-63
2022/10/04 00:33:55;;;;;;;12.02;7.82;;;;;;;10.16;100.00;102264.00;5088810;28;20032;-62
2022/10/04 00:36:24;;;;;;;10.95;7.47;;;;;;;10.13;100.00;102258.63;5088708;28;20019;-62
2022/10/04 00:39:04;;;;;;;8.98;8.05;;;;;;;10.10;100.00;102256.75;5088341;28;20122;-63
2022/10/04 00:41:52;;;;;;;12.18;7.28;;;;;;;10.08;100.00;102259.25;5088819;28;20083;-62
2022/10/04 00:44:36;;;;;;;9.85;7.60;;;;;;;10.04;100.00;102257.28;5088298;28;20024;-62
2022/10/04 00:47:12;;;;;;;12.82;8.02;;;;;;;10.02;100.00;102258.91;5088508;28;20020;-62
2022/10/04 00:49:41;;;;;;;12.45;7.85;;;;;;;9.99;100.00;102255.25;5088307;28;20171;-62
2022/10/04 00:52:14;;;;;;;10.45;6.63;;;;;;;9.97;100.00;102262.91;5088255;28;20024;-62
2022/10/04 00:54:55;;;;;;;9.68;6.95;;;;;;;9.95;100.00;102267.13;5088612;28;20024;-62
2022/10/04 00:57:29;;;;;;;11.18;8.45;;;;;;;9.91;100.00;102260.00;5088353;28;20302;-63
2022/10/04 00:59:58;;;;;;;10.80;7.28;;;;;;;9.90;100.00;102263.38;5088647;28;20031;-62
2022/10/04 01:02:26;;;;;;;11.02;7.50;;;;;;;9.89;100.00;102264.19;5088382;28;20040;-62
2022/10/04 01:04:58;;;;;;;8.65;7.18;;;;;;;9.85;100.00;102253.66;5088043;28;20103;-62
2022/10/04 01:07:48;;;;;;;10.20;6.93;;;;;;;9.82;100.00;102248.28;5088287;28;20055;-62
2022/10/04 01:10:30;;;;;;;7.50;6.70;;;;;;;9.78;100.00;102238.59;5087567;28;20492;-63
2022/10/04 01:13:24;;;;;;;11.15;6.88;;;;;;;9.73;100.00;102238.28;5087450;28;20058;-63
2022/10/04 01:15:55;;;;;;;9.52;7.10;;;;;;;9.69;100.00;102223.41;5088118;28;20470;-62
2022/10/04 01:18:20;;;;;;;11.05;7.25;;;;;;;9.68;100.00;102228.47;5088142;28;20418;-62
2022/10/04 01:20:58;;;;;;;12.13;7.65;;;;;;;9.64;100.00;102216.19;5088105;28;20085;-62
2022/10/04 01:23:37;;;;;;;9.75;7.60;;;;;;;9.61;100.00;102214.28;5088039;28;20024;-63
2022/10/04 01:26:05;;;;;;;8.93;7.53;;;;;;;9.60;100.00;102221.19;5087831;28;20494;-63
2022/10/04 01:28:33;;;;;;;12.85;7.97;;;;;;;9.60;100.00;102228.03;5087821;28;20024;-62
2022/10/04 01:30:59;;;;;;;12.05;8.10;;;;;;;9.58;100.00;102224.47;5088182;28;20479;-63
2022/10/04 01:33:24;;;;;;;10.32;7.80;;;;;;;9.57;100.00;102218.41;5087868;28;20024;-63
2022/10/04 01:35:50;;;;;;;12.45;7.38;;;;;;;9.53;100.00;102212.97;5087943;28;20028;-62
2022/10/04 01:38:16;;;;;;;9.93;7.97;;;;;;;9.50;100.00;102211.06;5087553;28;20036;-63
2022/10/04 01:40:48;;;;;;;10.15;7.55;;;;;;;9.47;100.00;102221.25;5087386;28;20056;-62
2022/10/04 01:43:19;;;;;;;9.50;7.55;;;;;;;9.46;100.00;102211.72;5087493;28;20139;-62
2022/10/04 01:45:56;;;;;;;9.38;7.28;;;;;;;9.44;100.00;102216.81;5087193;28;20100;-62
2022/10/04 01:48:24;;;;;;;9.82;7.30;;;;;;;9.40;100.00;102208.75;5087771;28;20499;-63
2022/10/04 01:50:58;;;;;;;12.40;7.45;;;;;;;9.34;100.00;102205.00;5087621;28;20026;-63
2022/10/04 01:53:34;;;;;;;11.90;7.85;;;;;;;9.30;100.00;102202.16;5087205;28;20028;-62
2022/10/04 01:56:04;;;;;;;11.63;7.57;;;;;;;9.28;100.00;102196.00;5087371;28;20073;-63
2022/10/04 01:58:39;;;;;;;12.30;8.10;;;;;;;9.27;100.00;102202.84;5087205;28;20031;-62
2022/10/04 02:01:12;;;;;;;11.63;7.68;;;;;;;9.26;100.00;102206.25;5087097;28;20028;-62
2022/10/04 02:03:43;;;;;;;10.35;7.75;;;;;;;9.26;100.00;102203.69;5087641;28;20111;-62
2022/10/04 02:06:09;;;;;;;14.60;8.05;;;;;;;9.23;100.00;102191.44;5087063;28;20085;-62
2022/10/04 02:08:39;;;;;;;12.60;7.65;;;;;;;9.24;100.00;102197.50;5087684;28;20023;-63
2022/10/04 02:11:06;;;;;;;10.75;7.85;;;;;;;9.24;100.00;102192.34;5086850;28;20119;-62
2022/10/04 02:13:35;;;;;;;11.65;8.50;;;;;;;9.25;100.00;102188.94;5087226;28;20488;-63
2022/10/04 02:16:02;;;;;;;9.52;7.85;;;;;;;9.24;100.00;102175.13;5086717;28;20020;-63
2022/10/04 02:18:30;;;;;;;11.68;8.05;;;;;;;9.22;100.00;102168.06;5087518;28;20375;-62
2022/10/04 02:20:57;;;;;;;11.48;8.18;;;;;;;9.18;100.00;102167.00;5087018;28;20106;-63
2022/10/04 02:23:23;;;;;;;14.15;8.93;;;;;;;9.15;100.00;102168.50;5087156;28;20008;-63
2022/10/04 02:25:49;;;;;;;10.48;7.72;;;;;;;9.15;100.00;102163.34;5090801;28;20024;-63
2022/10/04 02:28:17;;;;;;;9.23;8.20;;;;;;;9.09;100.00;102151.84;5091153;28;20378;-62
2022/10/04 02:32:56;;;;;;;14.70;9.50;;;;;;;9.07;100.00;102150.84;5081245;28;20462;-62
2022/10/04 02:33:39;;;;;;;11.55;9.90;;;;;;;9.03;100.00;102151.44;5090240;28;20103;-63
2022/10/04 02:36:06;;;;;;;15.75;12.68;;;;;;;9.03;100.00;102143.69;5091308;28;20581;-62
2022/10/04 02:38:36;;;;;;;20.02;13.60;;;;;;;9.04;100.00;102136.84;5091026;28;20106;-62
2022/10/04 02:41:09;;;;;;;20.75;15.93;;;;;;;9.04;100.00;102142.00;5089025;28;20059;-62
2022/10/04 02:43:55;;;;;;;18.45;14.55;;;;;;;9.03;100.00;102130.75;5091084;28;20039;-62
2022/10/04 02:46:28;;;;;;;19.20;15.50;;;;;;;9.02;100.00;102131.59;5091099;28;20028;-62
2022/10/04 02:49:09;;;;;;;17.17;14.90;;;;;;;9.03;100.00;102127.31;5090416;28;20023;-63
2022/10/04 02:51:45;;;;;;;17.58;14.10;;;;;;;9.04;100.00;102121.31;5091183;28;20184;-62
2022/10/04 02:54:13;;;;;;;18.08;12.88;;;;;;;9.01;100.00;102116.88;5090696;28;20420;-62
2022/10/04 02:56:39;;;;;;;21.02;12.90;;;;;;;9.00;100.00;102105.63;5090947;28;20032;-62
2022/10/04 02:59:06;;;;;;;16.75;12.15;;;;;;;8.99;100.00;102102.97;5090991;28;20035;-62
2022/10/04 03:01:52;;;;;;;16.27;12.07;;;;;;;8.96;100.00;102102.78;5090373;28;20038;-62
2022/10/04 03:04:22;;;;;;;19.05;12.68;;;;;;;8.96;100.00;102097.63;5090644;28;20030;-63
2022/10/04 03:06:48;;;;;;;16.85;13.00;;;;;;;8.95;100.00;102101.00;5091135;28;20024;-62
2022/10/04 03:09:15;;;;;;;16.00;11.98;;;;;;;8.95;100.00;102091.56;5090332;28;20032;-62
2022/10/04 03:11:41;;;;;;;17.73;12.98;;;;;;;8.95;100.00;102085.47;5090238;28;20089;-62
2022/10/04 03:14:12;;;;;;;18.83;13.00;;;;;;;8.94;100.00;102089.75;5090711;28;20024;-62
2022/10/04 03:16:39;;;;;;;;;;;;;;;8.94;100.00;102088.88;5091446;28;20024;-62
2022/10/04 03:19:07;;;;;;;15.45;12.77;;;;;;;8.94;100.00;102089.75;5090629;28;20260;-62
2022/10/04 03:21:34;;;;;;;21.50;13.55;;;;;;;8.93;100.00;102093.16;5089821;28;20085;-62
2022/10/04 03:24:02;;;;;;;15.57;12.73;;;;;;;8.92;100.00;102080.13;5090432;28;20060;-62
2022/10/04 03:26:45;;;;;;;19.08;12.85;;;;;;;8.91;100.00;102078.34;5090019;28;20031;-62
2022/10/04 03:29:13;;;;;;;17.80;12.77;;;;;;;8.87;100.00;102080.75;5089978;28;20036;-62
2022/10/04 03:31:45;;;;;;;20.05;12.82;;;;;;;8.86;100.00;102080.66;5089066;28;20019;-62
2022/10/04 03:34:22;;;;;;;20.85;13.85;;;;;;;8.82;100.00;102071.84;5089958;28;20039;-62
2022/10/04 03:36:49;;;;;;;16.40;12.88;;;;;;;8.79;100.00;102066.50;5090036;28;20032;-62
2022/10/04 03:39:25;;;;;;;19.27;13.27;;;;;;;8.77;100.00;102065.50;5089805;28;20436;-62
2022/10/04 03:41:52;;;;;;;15.77;13.20;;;;;;;8.75;100.00;102061.94;5089720;28;20051;-62
2022/10/04 03:44:18;;;;;;;18.75;13.02;;;;;;;8.73;100.00;102068.69;5089955;28;20091;-62
2022/10/04 03:46:44;;;;;;;17.42;13.02;;;;;;;8.72;100.00;102064.34;5089884;28;20032;-62
2022/10/04 03:49:16;;;;;;;16.33;12.63;;;;;;;8.69;100.00;102056.41;5089847;28;20464;-62
2022/10/04 03:51:47;;;;;;;18.65;12.57;;;;;;;8.65;100.00;102060.50;5088165;28;20024;-62
2022/10/04 03:54:17;;;;;;;16.42;12.27;;;;;;;8.63;100.00;102051.78;5088642;28;20107;-62
2022/10/04 03:56:44;;;;;;;16.23;12.35;;;;;;;8.60;100.00;102052.47;5089739;28;20031;-62
2022/10/04 03:59:14;;;;;;;16.13;12.25;;;;;;;8.57;100.00;102054.88;5089202;28;20024;-62
2022/10/04 04:01:47;;;;;;;14.93;12.55;;;;;;;8.55;100.00;102053.84;5088783;28;20027;-62
2022/10/04 04:04:31;;;;;;;15.30;12.27;;;;;;;8.53;100.00;102051.19;5089454;28;20028;-62
2022/10/04 04:07:08;;;;;;;19.63;11.80;;;;;;;8.51;100.00;102046.72;5090092;28;20047;-62
2022/10/04 04:09:46;;;;;;;13.63;11.32;;;;;;;8.48;100.00;102056.88;5089000;28;20313;-62
2022/10/04 04:12:21;;;;;;;17.40;12.60;;;;;;;8.45;100.00;102042.09;5088510;28;20059;-62
2022/10/04 04:14:50;;;;;;;18.10;13.02;;;;;;;8.45;100.00;102038.59;5089380;28;20012;-62
2022/10/04 04:17:39;;;;;;;16.08;12.55;;;;;;;8.45;100.00;102048.94;5073765;28;20031;-62
2022/10/04 04:20:15;;;;;;;16.60;12.40;;;;;;;8.44;100.00;102047.16;5069112;28;20082;-62
2022/10/04 04:22:45;;;;;;;14.32;12.52;;;;;;;8.43;100.00;102048.84;5063954;28;20085;-62
2022/10/04 04:25:14;;;;;;;14.73;12.45;;;;;;;8.43;100.00;102037.63;5069565;28;20879;-62
2022/10/04 04:27:42;;;;;;;13.82;12.38;;;;;;;8.43;100.00;102053.13;5069270;28;20404;-62
2022/10/04 04:30:15;;;;;;;16.75;13.00;;;;;;;8.40;100.00;102059.88;5068820;28;20024;-62
2022/10/04 04:32:46;;;;;;;19.63;13.20;;;;;;;8.41;100.00;102055.59;5069264;28;20067;-62
2022/10/04 04:35:31;;;;;;;16.92;12.05;;;;;;;8.38;100.00;102056.31;5068906;28;20043;-62
2022/10/04 04:38:16;;;;;;;13.02;11.73;;;;;;;8.38;100.00;102053.72;5069374;28;20028;-62
2022/10/04 04:40:42;;;;;;;17.15;12.02;;;;;;;8.38;100.00;102055.44;5072826;28;20027;-62
2022/10/04 04:43:13;;;;;;;19.90;13.43;;;;;;;8.36;100.00;102052.75;5076942;28;20052;-62
2022/10/04 04:45:38;;;;;;;23.23;12.52;;;;;;;8.35;100.00;102040.63;5068644;28;20032;-62
2022/10/04 04:48:05;;;;;;;17.42;12.45;;;;;;;8.36;100.00;102041.53;5068482;28;20078;-62
2022/10/04 04:50:35;;;;;;;15.23;12.50;;;;;;;8.33;100.00;102037.06;5068885;28;20024;-62
2022/10/04 04:53:07;;;;;;;15.85;12.05;;;;;;;8.33;100.00;102036.19;5068376;28;20307;-62
2022/10/04 04:55:43;;;;;;;19.67;12.90;;;;;;;8.33;100.00;102033.59;5074704;28;20040;-62
2022/10/04 04:58:20;;;;;;;15.25;13.02;;;;;;;8.33;100.00;102024.13;5069348;28;20346;-62
2022/10/04 05:00:55;;;;;;;15.88;12.35;;;;;;;8.31;100.00;102015.41;5068519;28;20017;-62
2022/10/04 05:03:21;;;;;;;14.70;12.32;;;;;;;8.33;100.00;102029.31;5068580;28;20024;-62
2022/10/04 05:05:46;;;;;;;17.25;12.55;;;;;;;8.34;100.00;102022.47;5068752;28;20549;-62
2022/10/04 05:08:18;;;;;;;14.45;12.55;;;;;;;8.33;100.00;102016.38;5067949;28;20067;-62
2022/10/04 05:11:07;;;;;;;13.50;11.90;;;;;;;8.37;100.00;102027.78;5060641;28;20025;-62
2022/10/04 05:13:57;;;;;;;13.63;11.52;;;;;;;8.39;100.00;102033.94;5056945;28;20033;-62
2022/10/04 05:16:30;;;;;;;16.67;12.15;;;;;;;8.38;100.00;102030.47;5068749;28;20085;-62
2022/10/04 05:18:59;;;;;;;15.38;12.25;;;;;;;8.38;100.00;102030.47;5067790;28;20024;-62
2022/10/04 05:21:28;;;;;;;16.95;12.25;;;;;;;8.38;100.00;102039.94;5064126;28;20495;-62
2022/10/04 05:23:56;;;;;;;15.25;12.35;;;;;;;8.38;100.00;102045.97;5051175;28;20140;-62
2022/10/04 05:26:29;;;;;;;21.77;11.50;;;;;;;8.35;100.00;102032.88;5048417;28;20083;-62
2022/10/04 05:29:01;;;;;;;16.50;11.65;;;;;;;8.35;100.00;102029.38;5065093;28;20052;-62
2022/10/04 05:31:35;;;;;;;11.73;10.48;;;;;;;8.32;100.00;102032.69;5060985;28;20051;-62
2022/10/04 05:34:00;;;;;;;12.65;10.45;;;;;;;8.31;100.00;102033.47;5062647;28;20462;-62
2022/10/04 05:36:57;;;;;;;17.00;10.98;;;;;;;8.29;100.00;102024.78;5053155;28;20028;-62
2022/10/04 05:39:49;;;;;;;18.13;10.60;;;;;;;8.25;100.00;102023.69;5057602;28;20089;-62
2022/10/04 05:42:40;;;;;;;14.45;9.68;;;;;;;8.25;100.00;102027.97;5082700;28;20134;-62
2022/10/04 05:45:19;;;;;;;14.05;10.25;;;;;;;8.23;100.00;102024.38;5086047;28;20464;-61
2022/10/04 05:47:56;;;;;;;16.45;10.65;;;;;;;8.22;100.00;102032.94;5086178;28;20046;-62
2022/10/04 05:50:32;;;;;;;12.20;10.13;;;;;;;8.21;100.00;102042.38;5085445;28;20046;-62
2022/10/04 05:53:24;;;;;;;15.93;10.30;;;;;;;8.22;100.00;102045.84;5085859;28;20281;-62
2022/10/04 05:55:58;;;;;;;13.18;9.75;;;;;;;8.21;100.00;102041.47;5087233;28;20473;-62
2022/10/04 05:58:56;;;;;;;14.50;9.13;;;;;;;8.21;100.00;102038.88;5071514;28;20029;-62
2022/10/04 06:01:45;;;;;;;14.77;9.65;;;;;;;8.21;100.00;102032.03;5067464;28;20024;-62
2022/10/04 06:04:31;;;;;;;15.15;9.20;;;;;;;8.22;100.00;102043.28;5068590;28;20031;-62
2022/10/04 06:07:09;;;;;;;12.30;8.45;;;;;;;8.23;100.00;102050.22;5067436;28;20028;-62
2022/10/04 06:09:49;;;;;;;12.15;9.10;;;;;;;8.25;100.00;102048.63;5066015;28;20035;-62
2022/10/04 06:12:32;;;;;;;12.57;8.20;;;;;;;8.25;100.00;102048.63;5058816;28;20094;-62
2022/10/04 06:15:14;;;;;;;14.88;8.85;;;;;;;8.28;100.00;102059.13;5067164;28;20012;-62
2022/10/04 06:17:55;;;;;;;10.63;8.18;;;;;;;8.31;100.00;102059.31;5066240;28;20078;-62
2022/10/04 06:20:38;;;;;;;11.20;8.70;;;;;;;8.35;100.00;102055.22;5066509;28;20063;-62
2022/10/04 06:23:15;;;;;;;14.68;8.93;;;;;;;8.37;100.00;102057.13;5064484;28;20102;-62
2022/10/04 06:26:08;;;;;;;13.10;7.60;;;;;;;8.39;100.00;102057.19;5055406;28;20587;-63
2022/10/04 06:28:38;;;;;;;14.95;9.13;;;;;;;8.41;100.00;102056.50;5065628;28;20468;-62
2022/10/04 06:31:23;;;;;;;11.63;6.85;;;;;;;8.44;100.00;102060.09;5066632;28;20029;-62
2022/10/04 06:33:51;;;;;;;11.55;7.70;;;;;;;8.48;100.00;102056.88;5067061;28;20078;-62
2022/10/04 06:36:38;;;;;;;9.02;6.95;;;;;;;8.50;100.00;102048.41;5066513;28;20031;-62
2022/10/04 06:39:25;;;;;;;14.50;7.03;;;;;;;8.54;100.00;102046.91;5066661;28;20553;-62
2022/10/04 06:42:08;;;;;;;13.57;7.68;;;;;;;8.56;100.00;102040.19;5084478;28;20059;-62
2022/10/04 06:44:51;;;;;;;13.73;7.00;;;;;;;8.60;100.00;102038.69;5086913;28;20031;-61
2022/10/04 06:47:49;;;;;;;12.38;7.15;;;;;;;8.64;100.00;102033.75;5086804;28;20020;-62
2022/10/04 06:50:15;;;;;;;11.75;7.40;;;;;;;8.68;100.00;102044.28;5086637;28;20019;-62
2022/10/04 06:53:17;;;;;;;8.48;6.53;;;;;;;8.71;100.00;102044.44;5087284;28;20433;-62
2022/10/04 06:56:06;;;;;;;12.27;6.78;;;;;;;8.74;100.00;102049.81;5086573;28;20052;-62
2022/10/04 06:58:50;;;;;;;12.07;7.30;;;;;;;8.76;100.00;102048.22;5079905;28;20044;-62
2022/10/04 07:01:27;;;;;;;9.48;6.68;;;;;;;8.76;100.00;102043.06;5086906;28;20043;-62
2022/10/04 07:04:01;;;;;;;11.30;6.85;;;;;;;8.76;100.00;102048.22;5087264;28;20106;-62
2022/10/04 07:07:25;;;;;;;14.10;7.45;;;;;;;8.75;100.00;102038.66;5080785;28;20052;-62
2022/10/04 07:10:02;;;;;;;14.88;6.95;;;;;;;8.76;100.00;102033.59;5050037;28;20068;-62
2022/10/04 07:12:31;;;;;;;11.70;6.90;;;;;;;8.76;100.00;102032.72;5090464;28;20023;-62
2022/10/04 07:15:01;;;;;;;12.15;7.22;;;;;;;8.76;100.00;102031.00;5090815;28;20008;-62
2022/10/04 07:17:32;;;;;;;13.48;7.43;;;;;;;8.78;100.00;102031.09;5090893;28;20117;-62
2022/10/04 07:20:00;;;;;;;11.35;6.82;;;;;;;8.79;100.00;102032.88;5090315;28;20491;-62
2022/10/04 07:22:53;;;;;;;14.68;7.07;;;;;;;8.88;100.00;102023.09;5090426;28;20054;-62
2022/10/04 07:25:45;;;;;;;9.20;7.15;;;;;;;9.26;100.00;102032.94;5086329;28;20276;-62
2022/10/04 07:31:12;;;;;;;11.20;6.82;;;;;;;9.96;100.00;102020.31;5090312;28;20061;-62
2022/10/04 07:33:49;;;;;;;8.98;5.95;;;;;;;10.05;100.00;102017.34;5090153;28;20484;-62
2022/10/04 07:36:20;;;;;;;12.18;6.35;;;;;;;10.05;100.00;102025.09;5090580;28;20330;-63
2022/10/04 07:39:10;;;;;;;9.30;5.82;;;;;;;10.32;100.00;102025.69;5090267;28;20020;-61
2022/10/04 07:41:49;;;;;;;12.70;7.30;;;;;;;10.92;100.00;102029.53;5089644;28;20059;-62
2022/10/04 07:44:36;;;;;;;8.48;5.97;;;;;;;11.70;100.00;102031.44;5089230;28;20027;-62
2022/10/04 07:47:26;;;;;;;10.85;6.78;;;;;;;12.28;100.00;102036.66;5089827;28;20054;-62
2022/10/04 07:49:53;;;;;;;10.67;5.73;;;;;;;12.52;100.00;102035.94;5089581;28;20536;-62
2022/10/04 07:52:44;;;;;;;7.78;5.60;;;;;;;12.33;100.00;102043.84;5090005;28;20078;-62
2022/10/04 07:55:36;;;;;;;10.07;6.00;;;;;;;12.20;100.00;102047.59;5086861;28;20039;-62
2022/10/04 07:58:20;;;;;;;;;;;;;;;12.21;100.00;102041.59;5090445;28;20042;-62
2022/10/04 08:01:12;;;;;;;7.43;4.50;;;;;;;12.71;100.00;102035.91;5089203;28;19907;-62
2022/10/04 08:04:02;;;;;;;8.75;4.93;;;;;;;13.25;100.00;102025.94;5087211;28;20523;-62
2022/10/04 08:06:57;;;;;;;8.70;4.00;;;;;;;13.85;100.00;102029.06;5089222;28;20024;-62
2022/10/04 08:09:47;;;;;;;6.70;4.22;;;;;;;14.43;100.00;102033.75;5089261;28;20028;-63
2022/10/04 08:12:53;;;;;;;7.18;4.22;;;;;;;14.74;95.57;102031.31;5089424;28;20395;-63
2022/10/04 08:15:39;;;;;;;6.60;4.32;;;;;;;15.08;92.47;102028.94;5089468;28;20031;-62
2022/10/04 08:18:04;;;;;;;5.30;3.30;;;;;;;15.21;90.38;102025.03;5089299;28;20427;-62
2022/10/04 08:20:42;;;;;;;5.53;3.47;;;;;;;15.50;91.07;102022.44;5089123;28;20040;-62
2022/10/04 08:23:31;;;;;;;5.88;3.40;;;;;;;15.45;88.80;102021.41;5088056;28;20050;-62
2022/10/04 08:26:32;;;;;;;6.90;3.65;;;;;;;15.39;85.80;102019.50;5087518;28;20038;-63
2022/10/04 08:32:14;;;;;;;7.30;3.72;;;;;;;15.63;87.27;102017.56;5089377;28;20058;-62
2022/10/04 08:35:06;;;;;;;8.48;4.50;;;;;;;15.82;86.38;102019.88;5082304;28;20118;-62
2022/10/04 08:38:05;;;;;;;8.25;3.58;;;;;;;15.53;84.03;102021.63;5089131;28;20103;-63
2022/10/04 08:40:45;;;;;;;9.02;3.90;;;;;;;15.26;85.56;102026.03;5089013;28;20019;-63
2022/10/04 08:43:38;;;;;;;6.28;4.03;;;;;;;15.17;90.50;102034.47;5088149;28;20094;-62
2022/10/04 08:46:42;;;;;;;5.13;3.83;;;;;;;15.03;87.96;102023.59;5088626;28;20422;-62
2022/10/04 08:49:23;;;;;;;7.82;4.00;;;;;;;15.09;86.83;102034.22;5088510;28;20020;-62
2022/10/04 08:51:50;;;;;;;6.93;4.53;;;;;;;15.21;86.68;102028.53;5088670;28;20024;-63
2022/10/04 08:54:56;;;;;;;7.43;4.63;;;;;;;15.31;86.69;102027.06;5088319;28;20032;-63
2022/10/04 08:57:50;;;;;;;7.80;4.63;;;;;;;15.52;88.15;102020.75;5088492;28;20331;-63
2022/10/04 09:00:19;;;;;;;9.45;4.10;;;;;;;15.59;85.32;102021.81;5050287;28;20491;-62
2022/10/04 09:03:25;;;;;;;9.15;4.47;;;;;;;15.71;83.86;102031.75;5088412;28;20130;-63
2022/10/04 09:06:13;;;;;;;6.95;4.00;;;;;;;15.90;84.41;102020.09;5088715;28;20117;-63
2022/10/04 09:09:16;;;;;;;6.63;3.97;;;;;;;15.99;82.56;102022.09;5088623;28;20649;-62
2022/10/04 09:12:20;;;;;;;8.40;4.22;;;;;;;15.92;81.02;102021.03;5087874;28;20108;-62
2022/10/04 09:15:13;;;;;;;8.27;4.70;;;;;;;15.77;82.59;102031.94;5073321;28;20040;-62
2022/10/04 09:18:00;;;;;;;6.95;4.22;;;;;;;15.63;82.61;102038.47;5088006;28;20034;-62
2022/10/04 09:20:50;;;;;;;6.30;3.97;;;;;;;15.51;85.03;102034.63;5087878;28;20063;-63
2022/10/04 09:23:30;;;;;;;6.68;4.00;;;;;;;15.47;86.66;102030.19;5087605;28;20498;-62
2022/10/04 09:26:31;;;;;;;6.72;4.25;;;;;;;15.45;85.25;102018.81;5088108;28;20094;-62
2022/10/04 09:29:37;;;;;;;5.88;4.00;;;;;;;15.40;85.92;102025.59;5088216;28;20027;-62
2022/10/04 09:32:24;;;;;;;5.90;3.95;;;;;;;15.44;86.76;102022.22;5087975;28;20016;-63
2022/10/04 09:35:05;;;;;;;8.32;3.95;;;;;;;15.45;85.89;102010.97;5087651;28;20027;-62
2022/10/04 09:37:58;;;;;;;7.20;3.85;;;;;;;15.43;85.82;102012.63;5087975;28;20076;-62
2022/10/04 09:40:41;;;;;;;8.13;4.18;;;;;;;15.32;85.37;102002.75;5087474;28;20016;-62
2022/10/04 09:43:34;;;;;;;5.95;3.42;;;;;;;15.32;87.66;102007.97;5086486;28;20504;-62
2022/10/04 09:46:15;;;;;;;6.55;3.88;;;;;;;15.18;85.88;102007.53;5087474;28;20028;-63
2022/10/04 09:48:59;;;;;;;6.45;4.38;;;;;;;15.00;85.58;102002.63;5087332;28;20146;-63
2022/10/04 09:51:39;;;;;;;6.60;3.78;;;;;;;14.99;87.95;101998.22;5087762;28;20098;-62
2022/10/04 09:54:25;;;;;;;5.75;4.13;;;;;;;15.03;88.90;102000.09;5088115;28;20464;-62
2022/10/04 09:57:11;;;;;;;10.38;4.55;;;;;;;15.06;91.76;102005.41;5088119;28;20526;-62
2022/10/04 10:00:06;;;;;;;6.45;4.20;;;;;;;15.03;89.29;102009.66;5086831;28;20373;-63
2022/10/04 10:03:16;;;;;;;7.53;3.90;;;;;;;15.07;90.77;102008.94;5087645;28;20036;-62
2022/10/04 10:05:41;;;;;;;6.00;3.70;;;;;;;14.87;86.35;102003.94;5087559;28;20020;-63
2022/10/04 10:08:35;;;;;;;9.02;3.90;;;;;;;14.92;88.10;102009.31;5086819;28;20400;-63
2022/10/04 10:14:22;;;;;;;6.70;3.78;;;;;;;14.92;89.03;102001.47;5087729;28;20111;-63
2022/10/04 10:17:14;;;;;;;6.80;3.95;;;;;;;14.96;89.45;101995.53;5087487;28;20074;-63
2022/10/04 10:20:33;;;;;;;6.53;3.28;;;;;;;15.07;89.25;101993.25;5086584;28;20024;-63
2022/10/04 10:23:19;;;;;;;6.50;3.60;;;;;;;15.20;89.20;101994.53;5069596;28;20039;-63
2022/10/04 10:26:06;;;;;;;5.13;3.30;;;;;;;15.31;89.09;101987.91;5086991;28;20024;-63
2022/10/04 10:28:43;;;;;;;7.07;3.50;;;;;;;15.51;90.16;101981.53;5086915;28;20016;-63
2022/10/04 10:31:46;;;;;;;8.45;3.97;;;;;;;15.64;86.91;101967.09;5086660;28;20024;-63
2022/10/04 10:34:34;;;;;;;7.53;3.28;;;;;;;15.72;85.19;101970.81;5077492;28;20112;-63
2022/10/04 10:37:11;;;;;;;6.18;3.60;;;;;;;15.82;84.82;101974.56;5086950;28;20020;-63
2022/10/04 10:39:51;;;;;;;6.47;2.88;;;;;;;15.99;83.75;101980.28;5086845;28;20032;-63
2022/10/04 10:42:37;;;;;;;5.72;3.13;;;;;;;15.98;82.58;101978.50;5086909;28;20048;-63
2022/10/04 10:45:33;;;;;;;4.82;3.40;;;;;;;16.15;81.65;101981.63;5087670;28;20028;-63
2022/10/04 10:48:23;;;;;;;9.02;3.47;;;;;;;16.12;81.92;101981.50;5090941;28;20028;-63
2022/10/04 10:51:10;;;;;;;7.78;3.80;;;;;;;16.17;84.05;101985.13;5090605;28;20403;-63
2022/10/04 10:53:54;;;;;;;7.78;3.92;;;;;;;16.16;82.70;101986.00;5074177;28;20091;-63
2022/10/04 10:56:47;;;;;;;6.03;3.13;;;;;;;16.43;85.53;101994.53;5069177;28;20055;-63
2022/10/04 10:59:51;;;;;;;6.25;3.40;;;;;;;16.66;81.45;101988.97;5090758;28;20032;-62
2022/10/04 11:02:41;;;;;;;6.63;3.90;;;;;;;16.68;79.34;101976.81;5090933;28;20384;-63
2022/10/04 11:05:44;;;;;;;5.57;3.38;;;;;;;16.65;79.19;101971.53;5091151;28;20060;-62
2022/10/04 11:08:22;;;;;;;8.30;3.03;;;;;;;16.75;80.67;101973.53;5091065;28;20031;-62
2022/10/04 11:11:12;;;;;;;5.32;2.70;;;;;;;16.99;82.43;101976.69;5090733;28;20032;-63
2022/10/04 11:14:10;;;;;;;5.15;3.42;;;;;;;17.21;81.91;101967.63;5090689;28;20107;-63
2022/10/04 11:17:00;;;;;;;6.07;2.97;;;;;;;17.44;78.65;101959.38;5090860;28;20050;-63
2022/10/04 11:19:45;;;;;;;4.18;2.40;;;;;;;17.47;75.90;101959.44;5089984;28;20032;-63
2022/10/04 11:22:43;;;;;;;7.55;2.75;;;;;;;17.66;77.59;101957.22;5090661;28;20429;-63
2022/10/04 11:25:28;;;;;;;5.03;2.80;;;;;;;17.61;74.51;101951.00;5090055;28;20040;-63
2022/10/04 11:28:01;;;;;;;6.22;2.70;;;;;;;17.73;74.90;101947.72;5090138;28;20024;-63
2022/10/04 11:31:01;;;;;;;7.10;3.00;;;;;;;17.75;72.89;101949.50;5090186;28;20044;-63
2022/10/04 11:33:57;;;;;;;6.47;2.70;;;;;;;17.63;73.62;101939.66;5089230;28;20134;-64
2022/10/04 11:36:44;;;;;;;5.10;2.85;;;;;;;17.56;72.58;101936.91;5089791;28;20487;-63
2022/10/04 11:39:47;;;;;;;6.43;2.95;;;;;;;17.37;72.63;101942.66;5089774;28;20038;-63
2022/10/04 11:42:48;;;;;;;5.53;3.05;;;;;;;17.39;72.28;101937.44;5090163;28;20048;-63
2022/10/04 11:45:32;;;;;;;6.70;3.03;;;;;;;17.54;73.76;101936.84;5090338;28;20054;-63
2022/10/04 11:48:10;;;;;;;4.65;2.47;;;;;;;17.32;71.65;101927.69;5089917;28;20028;-63
2022/10/04 11:51:18;;;;;;;5.53;2.65;;;;;;;17.48;73.57;101928.91;5089675;28;20034;-63
2022/10/04 11:53:52;;;;;;;7.70;3.00;;;;;;;17.45;72.94;101919.22;5066548;28;20081;-63
2022/10/04 11:57:06;;;;;;;6.68;2.60;;;;;;;17.68;73.25;101915.31;5065796;28;20027;-63
2022/10/04 11:59:47;;;;;;;5.20;2.53;;;;;;;17.84;73.29;101912.13;5085637;28;20039;-63
2022/10/04 12:03:01;;;;;;;5.72;2.63;;;;;;;17.85;71.66;101920.84;5089859;28;20554;-63
2022/10/04 12:05:56;;;;;;;5.38;2.35;;;;;;;17.73;70.37;101919.78;5089697;28;20074;-63
2022/10/04 12:08:31;;;;;;;4.65;2.60;;;;;;;17.60;69.51;101917.75;5089829;28;20218;-63
2022/10/04 12:11:15;;;;;;;5.47;2.75;;;;;;;17.49;70.77;101914.94;5089847;28;20036;-63
2022/10/04 12:13:57;;;;;;;5.47;2.75;;;;;;;17.38;71.58;101912.09;5089113;28;20389;-63
2022/10/04 12:17:17;;;;;;;2.83;2.45;;;;;;;17.44;72.30;101922.69;5089159;28;20483;-63
2022/10/04 12:20:20;;;;;;;4.13;2.33;;;;;;;17.43;71.75;101920.06;5089674;28;20050;-63
2022/10/04 12:23:04;;;;;;;5.75;3.17;;;;;;;17.43;71.81;101907.81;5089283;28;20027;-63
2022/10/04 12:25:45;;;;;;;4.38;2.50;;;;;;;17.51;73.27;101913.22;5088695;28;20118;-63